Robyn J — WTQ4065 — position and weather

sailwx.info

Track history (hours):
 
Tides and Currents Weather Stations Pressure Air Temp Water Temp Dewpoint Dewpoint Depression Visibility Wind Speed Wind Dir Waves Ship Positions

Robyn J

Owner: JANKOVICH, TOM J, SAN PEDRO, CA. More information available from US FCC via Universal Licensing System and Coast Guard Vessel Documentation Center.

Last reported at 2017-Nov-19 19:57 UTC. Time now 2017-Nov-21 13:33 UTC.
Position N 33°44' W 118°17'.

Length 36 m; draft 3 m.

Type: Tow > 200 m length. MMSI: 367006770.

Date/timePositionNaut miles runAvg speedWind from/ knotsBaromVisibWave heightAir tempDewpointWater temp
2017-Nov-19 19:57N 33°44' W 118°17'0 0.0
2017-Nov-19 19:30N 33°44' W 118°17'8 3.0
2017-Nov-19 16:49N 33°38' W 118°10'13 6.7
2017-Nov-19 14:51N 33°27' W 118°00'13 6.8
2017-Nov-19 12:53N 33°16' W 117°52'2 6.7
2017-Nov-19 12:31N 33°14' W 117°50'3 6.8
2017-Nov-19 12:00N 33°11' W 117°47'3 6.5
2017-Nov-19 11:30N 33°09' W 117°45'3 6.1
2017-Nov-19 11:00N 33°06' W 117°43'3 6.2
2017-Nov-19 10:30N 33°04' W 117°40'3 6.3
2017-Nov-19 10:00N 33°01' W 117°38'3 6.1
2017-Nov-19 09:31N 32°59' W 117°36'3 6.1
2017-Nov-19 09:01N 32°56' W 117°34'3 6.4
2017-Nov-19 08:30N 32°54' W 117°32'3 6.3
2017-Nov-19 08:00N 32°51' W 117°29'3 6.3
2017-Nov-19 07:31N 32°49' W 117°27'3 6.5
2017-Nov-19 07:01N 32°46' W 117°25'3 6.8
2017-Nov-19 06:30N 32°44' W 117°22'9 6.7
2017-Nov-19 05:08N 32°36' W 117°16'6 5.7
2017-Nov-19 04:05N 32°42' W 117°14'1 6.1
2017-Nov-19 04:00N 32°43' W 117°13'1 0.4
2017-Nov-19 01:56N 32°43' W 117°13'6 7.4
2017-Nov-19 01:11N 32°38' W 117°16'2 9.5
2017-Nov-19 00:57N 32°40' W 117°17'4 9.5
2017-Nov-19 00:30N 32°43' W 117°20'5 9.4
2017-Nov-19 00:01N 32°47' W 117°24'510.0
2017-Nov-18 23:30N 32°51' W 117°27'5 9.7
2017-Nov-18 23:00N 32°55' W 117°31'510.1
2017-Nov-18 22:31N 32°59' W 117°34'510.0
2017-Nov-18 22:00N 33°02' W 117°38'510.3
2017-Nov-18 21:30N 33°06' W 117°42'510.2
2017-Nov-18 21:00N 33°11' W 117°46'  
2017-Nov-16 13:40N 33°44' W 118°17'0 0.0
2017-Nov-16 13:11N 33°44' W 118°17'0 0.0
2017-Nov-16 12:54N 33°44' W 118°17'0 0.0
2017-Nov-16 12:31N 33°44' W 118°17'0 0.0
2017-Nov-16 11:56N 33°44' W 118°17'0 0.0
2017-Nov-16 11:30N 33°44' W 118°17'0 0.0
2017-Nov-16 10:36N 33°44' W 118°17'0 0.0
2017-Nov-16 10:30N 33°44' W 118°17'0 0.0
2017-Nov-15 17:49N 33°44' W 118°16'0 0.1
2017-Nov-15 17:20N 33°44' W 118°17'0 0.0
2017-Nov-15 13:44N 33°44' W 118°17'0 0.0
2017-Nov-15 13:15N 33°44' W 118°17'0 0.0
2017-Nov-15 12:58N 33°44' W 118°17'3 0.5
2017-Nov-15 06:53N 33°41' W 118°14'3 7.0
2017-Nov-15 06:29N 33°38' W 118°15'4 7.5
2017-Nov-15 06:00N 33°35' W 118°15'15 7.1
2017-Nov-15 03:57N 33°20' W 118°16'8 7.2
2017-Nov-15 02:47N 33°12' W 118°18'2 7.4
2017-Nov-15 02:30N 33°11' W 118°20'8 7.5
2017-Nov-15 01:24N 33°06' W 118°28'3 7.4
2017-Nov-15 01:00N 33°04' W 118°30'3 6.9
2017-Nov-15 00:30N 33°01' W 118°33'1 0.7
2017-Nov-14 23:20N 33°00' W 118°33'0 0.0
2017-Nov-14 23:00N 33°00' W 118°33'0 0.0
2017-Nov-14 19:03N 33°00' W 118°33'0 0.0
2017-Nov-14 18:47N 33°00' W 118°33'0 0.0
2017-Nov-14 18:29N 33°00' W 118°33'0 0.0
2017-Nov-14 18:00N 33°00' W 118°33'0 0.0
2017-Nov-14 17:30N 33°00' W 118°33'0 0.0
2017-Nov-14 17:00N 33°00' W 118°33'0 0.0
2017-Nov-14 16:31N 33°00' W 118°33'0 0.0
2017-Nov-14 16:00N 33°00' W 118°33'0 0.0
2017-Nov-14 15:16N 33°00' W 118°33'0 0.1
2017-Nov-14 14:57N 33°00' W 118°33'0 0.7
2017-Nov-14 14:27N 33°01' W 118°33'4 3.8
2017-Nov-14 13:26N 33°04' W 118°30'2 4.4
2017-Nov-14 12:57N 33°05' W 118°29'4 4.4
2017-Nov-14 12:09N 33°08' W 118°26'14 5.5
2017-Nov-14 09:38N 33°19' W 118°15'1 6.3
2017-Nov-14 09:31N 33°19' W 118°15'3 6.2
2017-Nov-14 09:00N 33°22' W 118°15'17 6.4
2017-Nov-14 06:19N 33°40' W 118°15'4 1.6
2017-Nov-14 03:41N 33°44' W 118°17'0 0.0
2017-Nov-14 03:26N 33°44' W 118°17'0 0.0
2017-Nov-14 02:07N 33°44' W 118°17'0 0.0
2017-Nov-14 01:58N 33°44' W 118°17'0 0.1
2017-Nov-14 01:03N 33°44' W 118°16'0 0.1
2017-Nov-13 23:26N 33°44' W 118°17'0 0.0
2017-Nov-13 22:44N 33°44' W 118°17'  
Track history (hours):
 
Tides and Currents Weather Stations Pressure Air Temp Water Temp Dewpoint Dewpoint Depression Visibility Wind Speed Wind Dir Waves Ship Positions

Robyn J

Owner: JANKOVICH, TOM J, SAN PEDRO, CA. More information available from US FCC via Universal Licensing System and Coast Guard Vessel Documentation Center.

Last reported at 2017-Nov-19 19:57 UTC. Time now 2017-Nov-21 13:33 UTC.
Position N 33°44' W 118°17'.

Length 36 m; draft 3 m.

Type: Tow > 200 m length. MMSI: 367006770.

Date/timePositionNaut miles runAvg speedWind from/ knotsBaromVisibWave heightAir tempDewpointWater temp
2017-Nov-19 19:57N 33°44' W 118°17'0 0.0
2017-Nov-19 19:30N 33°44' W 118°17'8 3.0
2017-Nov-19 16:49N 33°38' W 118°10'13 6.7
2017-Nov-19 14:51N 33°27' W 118°00'13 6.8
2017-Nov-19 12:53N 33°16' W 117°52'2 6.7
2017-Nov-19 12:31N 33°14' W 117°50'3 6.8
2017-Nov-19 12:00N 33°11' W 117°47'3 6.5
2017-Nov-19 11:30N 33°09' W 117°45'3 6.1
2017-Nov-19 11:00N 33°06' W 117°43'3 6.2
2017-Nov-19 10:30N 33°04' W 117°40'3 6.3
2017-Nov-19 10:00N 33°01' W 117°38'3 6.1
2017-Nov-19 09:31N 32°59' W 117°36'3 6.1
2017-Nov-19 09:01N 32°56' W 117°34'3 6.4
2017-Nov-19 08:30N 32°54' W 117°32'3 6.3
2017-Nov-19 08:00N 32°51' W 117°29'3 6.3
2017-Nov-19 07:31N 32°49' W 117°27'3 6.5
2017-Nov-19 07:01N 32°46' W 117°25'3 6.8
2017-Nov-19 06:30N 32°44' W 117°22'9 6.7
2017-Nov-19 05:08N 32°36' W 117°16'6 5.7
2017-Nov-19 04:05N 32°42' W 117°14'1 6.1
2017-Nov-19 04:00N 32°43' W 117°13'1 0.4
2017-Nov-19 01:56N 32°43' W 117°13'6 7.4
2017-Nov-19 01:11N 32°38' W 117°16'2 9.5
2017-Nov-19 00:57N 32°40' W 117°17'4 9.5
2017-Nov-19 00:30N 32°43' W 117°20'5 9.4
2017-Nov-19 00:01N 32°47' W 117°24'510.0
2017-Nov-18 23:30N 32°51' W 117°27'5 9.7
2017-Nov-18 23:00N 32°55' W 117°31'510.1
2017-Nov-18 22:31N 32°59' W 117°34'510.0
2017-Nov-18 22:00N 33°02' W 117°38'510.3
2017-Nov-18 21:30N 33°06' W 117°42'510.2
2017-Nov-18 21:00N 33°11' W 117°46'  
2017-Nov-16 13:40N 33°44' W 118°17'0 0.0
2017-Nov-16 13:11N 33°44' W 118°17'0 0.0
2017-Nov-16 12:54N 33°44' W 118°17'0 0.0
2017-Nov-16 12:31N 33°44' W 118°17'0 0.0
2017-Nov-16 11:56N 33°44' W 118°17'0 0.0
2017-Nov-16 11:30N 33°44' W 118°17'0 0.0
2017-Nov-16 10:36N 33°44' W 118°17'0 0.0
2017-Nov-16 10:30N 33°44' W 118°17'0 0.0
2017-Nov-15 17:49N 33°44' W 118°16'0 0.1
2017-Nov-15 17:20N 33°44' W 118°17'0 0.0
2017-Nov-15 13:44N 33°44' W 118°17'0 0.0
2017-Nov-15 13:15N 33°44' W 118°17'0 0.0
2017-Nov-15 12:58N 33°44' W 118°17'3 0.5
2017-Nov-15 06:53N 33°41' W 118°14'3 7.0
2017-Nov-15 06:29N 33°38' W 118°15'4 7.5
2017-Nov-15 06:00N 33°35' W 118°15'15 7.1
2017-Nov-15 03:57N 33°20' W 118°16'8 7.2
2017-Nov-15 02:47N 33°12' W 118°18'2 7.4
2017-Nov-15 02:30N 33°11' W 118°20'8 7.5
2017-Nov-15 01:24N 33°06' W 118°28'3 7.4
2017-Nov-15 01:00N 33°04' W 118°30'3 6.9
2017-Nov-15 00:30N 33°01' W 118°33'1 0.7
2017-Nov-14 23:20N 33°00' W 118°33'0 0.0
2017-Nov-14 23:00N 33°00' W 118°33'0 0.0
2017-Nov-14 19:03N 33°00' W 118°33'0 0.0
2017-Nov-14 18:47N 33°00' W 118°33'0 0.0
2017-Nov-14 18:29N 33°00' W 118°33'0 0.0
2017-Nov-14 18:00N 33°00' W 118°33'0 0.0
2017-Nov-14 17:30N 33°00' W 118°33'0 0.0
2017-Nov-14 17:00N 33°00' W 118°33'0 0.0
2017-Nov-14 16:31N 33°00' W 118°33'0 0.0
2017-Nov-14 16:00N 33°00' W 118°33'0 0.0
2017-Nov-14 15:16N 33°00' W 118°33'0 0.1
2017-Nov-14 14:57N 33°00' W 118°33'0 0.7
2017-Nov-14 14:27N 33°01' W 118°33'4 3.8
2017-Nov-14 13:26N 33°04' W 118°30'2 4.4
2017-Nov-14 12:57N 33°05' W 118°29'4 4.4
2017-Nov-14 12:09N 33°08' W 118°26'14 5.5
2017-Nov-14 09:38N 33°19' W 118°15'1 6.3
2017-Nov-14 09:31N 33°19' W 118°15'3 6.2
2017-Nov-14 09:00N 33°22' W 118°15'17 6.4
2017-Nov-14 06:19N 33°40' W 118°15'4 1.6
2017-Nov-14 03:41N 33°44' W 118°17'0 0.0
2017-Nov-14 03:26N 33°44' W 118°17'0 0.0
2017-Nov-14 02:07N 33°44' W 118°17'0 0.0
2017-Nov-14 01:58N 33°44' W 118°17'0 0.1
2017-Nov-14 01:03N 33°44' W 118°16'0 0.1
2017-Nov-13 23:26N 33°44' W 118°17'0 0.0
2017-Nov-13 22:44N 33°44' W 118°17'  

Dump ship's entire track history